Asahikawa, Japan
Current Conditions -  °F | °C
As of 8:00 PM on Tuesday 21 Oct 2014 (Local Time) from RJEC Reporting Station
Broken Clouds Broken Clouds  
Wind Chill: 39°   Ceiling: 1200
Heat Index: 39°   Visibility: 6mi
Dew Point: 34°   Wind: 3mph
Humidity: 81%   Direction: 340°NNW
Pressure: 30"   Gusts: NA
Location:  43.77°N, 142.36°E
Report Text: RJEC 211100Z 34003KT 9999 FEW006 SCT010 BKN012 04/01 Q1016
Loading
Personal Weather Stations






























Interactive Weather Map
Tropical Storm Tracking
New forecast layout! Learn more

10-Day Weather Forecast

Advertisements
Track Severe Weather on mobile